Terminal Aerodrome Forecast
Issued by NWS Shreveport, LA

Home | Current Version | Previous Version | Text Only | Print | Product List | Glossary On
Versions: 1 2 3 4 5 6 7 8 9 10 11 12 13 14 15 16 17 18 19
000
FTUS44 KSHV 251120
TAFTYR
TAF
KTYR 251120Z 2512/2612 07008KT P6SM VCSH OVC035
      TEMPO 2512/2516 5SM -TSRA BR OVC015CB
     FM251600 08009KT P6SM BKN040 OVC080
     FM252000 09008KT P6SM SCT080 SCT250
     FM260000 10005KT P6SM SCT100 SCT250
     FM260900 11004KT P6SM BKN050=

USA.gov is the U.S. government's official web portal to all federal, state and local government web resources and services.